sensor_id;sensor_type;location;lat;lon;timestamp;temperature;humidity
70762;DHT22;58360;0.000;0.000;2023-09-07T00:01:07;22.70;80.30
70762;DHT22;58360;0.000;0.000;2023-09-07T00:03:33;22.70;80.70
70762;DHT22;58360;0.000;0.000;2023-09-07T00:05:59;22.70;80.60
70762;DHT22;58360;0.000;0.000;2023-09-07T00:08:24;22.70;81.00
70762;DHT22;58360;0.000;0.000;2023-09-07T00:10:50;22.60;81.20
70762;DHT22;58360;0.000;0.000;2023-09-07T00:13:16;22.60;81.20
70762;DHT22;58360;0.000;0.000;2023-09-07T00:15:42;22.50;81.50
70762;DHT22;58360;0.000;0.000;2023-09-07T00:18:08;22.50;82.00
70762;DHT22;58360;0.000;0.000;2023-09-07T00:20:33;22.50;81.80
70762;DHT22;58360;0.000;0.000;2023-09-07T00:22:59;22.50;81.30
70762;DHT22;58360;0.000;0.000;2023-09-07T00:25:26;22.50;81.40
70762;DHT22;58360;0.000;0.000;2023-09-07T00:27:51;22.50;81.60
70762;DHT22;58360;0.000;0.000;2023-09-07T00:30:17;22.40;82.10
70762;DHT22;58360;0.000;0.000;2023-09-07T00:32:42;22.40;82.10
70762;DHT22;58360;0.000;0.000;2023-09-07T00:35:08;22.40;81.70
70762;DHT22;58360;0.000;0.000;2023-09-07T00:37:33;22.30;82.30
70762;DHT22;58360;0.000;0.000;2023-09-07T00:39:59;22.30;82.10
70762;DHT22;58360;0.000;0.000;2023-09-07T00:42:25;22.30;82.10
70762;DHT22;58360;0.000;0.000;2023-09-07T00:44:50;22.20;81.50
70762;DHT22;58360;0.000;0.000;2023-09-07T00:47:16;22.10;81.80
70762;DHT22;58360;0.000;0.000;2023-09-07T00:49:42;22.10;82.30
70762;DHT22;58360;0.000;0.000;2023-09-07T00:52:08;22.10;81.80
70762;DHT22;58360;0.000;0.000;2023-09-07T00:54:34;22.20;81.90
70762;DHT22;58360;0.000;0.000;2023-09-07T00:56:59;22.10;82.10
70762;DHT22;58360;0.000;0.000;2023-09-07T00:59:25;22.10;82.00
70762;DHT22;58360;0.000;0.000;2023-09-07T01:01:50;22.00;82.00
70762;DHT22;58360;0.000;0.000;2023-09-07T01:04:16;22.10;81.60
70762;DHT22;58360;0.000;0.000;2023-09-07T01:06:45;22.10;81.60
70762;DHT22;58360;0.000;0.000;2023-09-07T01:09:18;22.20;81.10
70762;DHT22;58360;0.000;0.000;2023-09-07T01:11:44;22.00;81.40
70762;DHT22;58360;0.000;0.000;2023-09-07T01:14:10;22.10;81.30
70762;DHT22;58360;0.000;0.000;2023-09-07T01:16:35;22.00;81.70
70762;DHT22;58360;0.000;0.000;2023-09-07T01:19:05;21.90;81.90
70762;DHT22;58360;0.000;0.000;2023-09-07T01:21:34;21.80;82.40
70762;DHT22;58360;0.000;0.000;2023-09-07T01:24:00;21.80;82.30
70762;DHT22;58360;0.000;0.000;2023-09-07T01:26:26;21.80;82.10
70762;DHT22;58360;0.000;0.000;2023-09-07T01:28:52;21.80;82.70
70762;DHT22;58360;0.000;0.000;2023-09-07T01:31:17;21.70;82.80
70762;DHT22;58360;0.000;0.000;2023-09-07T01:33:43;21.70;83.20
70762;DHT22;58360;0.000;0.000;2023-09-07T01:36:08;21.80;82.30
70762;DHT22;58360;0.000;0.000;2023-09-07T01:38:34;21.80;82.50
70762;DHT22;58360;0.000;0.000;2023-09-07T01:40:59;21.80;82.60
70762;DHT22;58360;0.000;0.000;2023-09-07T01:43:25;21.80;82.60
70762;DHT22;58360;0.000;0.000;2023-09-07T01:45:50;21.70;82.90
70762;DHT22;58360;0.000;0.000;2023-09-07T01:48:16;21.70;83.00
70762;DHT22;58360;0.000;0.000;2023-09-07T01:50:42;21.70;82.90
70762;DHT22;58360;0.000;0.000;2023-09-07T01:53:07;21.60;82.90
70762;DHT22;58360;0.000;0.000;2023-09-07T01:55:33;21.60;83.00
70762;DHT22;58360;0.000;0.000;2023-09-07T01:57:58;21.60;83.10
70762;DHT22;58360;0.000;0.000;2023-09-07T02:00:24;21.60;82.70
70762;DHT22;58360;0.000;0.000;2023-09-07T02:02:49;21.60;83.30
70762;DHT22;58360;0.000;0.000;2023-09-07T02:05:15;21.50;83.40
70762;DHT22;58360;0.000;0.000;2023-09-07T02:07:42;21.40;84.10
70762;DHT22;58360;0.000;0.000;2023-09-07T02:10:07;21.30;84.70
70762;DHT22;58360;0.000;0.000;2023-09-07T02:12:33;21.20;85.10
70762;DHT22;58360;0.000;0.000;2023-09-07T02:15:00;21.20;85.60
70762;DHT22;58360;0.000;0.000;2023-09-07T02:17:26;21.10;85.70
70762;DHT22;58360;0.000;0.000;2023-09-07T02:19:51;21.20;85.70
70762;DHT22;58360;0.000;0.000;2023-09-07T02:22:17;21.10;85.90
70762;DHT22;58360;0.000;0.000;2023-09-07T02:24:42;21.20;85.70
70762;DHT22;58360;0.000;0.000;2023-09-07T02:27:08;21.20;85.80
70762;DHT22;58360;0.000;0.000;2023-09-07T02:29:33;21.20;85.90
70762;DHT22;58360;0.000;0.000;2023-09-07T02:31:59;21.10;85.80
70762;DHT22;58360;0.000;0.000;2023-09-07T02:34:24;21.10;86.10
70762;DHT22;58360;0.000;0.000;2023-09-07T02:36:50;21.00;86.40
70762;DHT22;58360;0.000;0.000;2023-09-07T02:39:15;21.10;86.50
70762;DHT22;58360;0.000;0.000;2023-09-07T02:41:42;21.00;86.40
70762;DHT22;58360;0.000;0.000;2023-09-07T02:44:08;21.00;86.60
70762;DHT22;58360;0.000;0.000;2023-09-07T02:46:33;20.90;86.40
70762;DHT22;58360;0.000;0.000;2023-09-07T02:48:59;20.90;86.80
70762;DHT22;58360;0.000;0.000;2023-09-07T02:51:24;20.90;87.00
70762;DHT22;58360;0.000;0.000;2023-09-07T02:53:50;20.90;87.10
70762;DHT22;58360;0.000;0.000;2023-09-07T02:56:16;21.00;87.10
70762;DHT22;58360;0.000;0.000;2023-09-07T02:58:41;20.90;86.90
70762;DHT22;58360;0.000;0.000;2023-09-07T03:01:07;21.00;87.10
70762;DHT22;58360;0.000;0.000;2023-09-07T03:03:36;20.90;87.50
70762;DHT22;58360;0.000;0.000;2023-09-07T03:06:09;20.90;87.80
70762;DHT22;58360;0.000;0.000;2023-09-07T03:08:34;20.80;88.20
70762;DHT22;58360;0.000;0.000;2023-09-07T03:11:06;20.70;88.20
70762;DHT22;58360;0.000;0.000;2023-09-07T03:13:32;20.70;88.10
70762;DHT22;58360;0.000;0.000;2023-09-07T03:15:58;20.70;88.40
70762;DHT22;58360;0.000;0.000;2023-09-07T03:18:23;20.60;88.70
70762;DHT22;58360;0.000;0.000;2023-09-07T03:20:53;20.60;88.90
70762;DHT22;58360;0.000;0.000;2023-09-07T03:23:19;20.60;89.10
70762;DHT22;58360;0.000;0.000;2023-09-07T03:25:44;20.40;89.50
70762;DHT22;58360;0.000;0.000;2023-09-07T03:28:10;20.40;89.80
70762;DHT22;58360;0.000;0.000;2023-09-07T03:30:35;20.40;90.00
70762;DHT22;58360;0.000;0.000;2023-09-07T03:33:01;20.40;90.20
70762;DHT22;58360;0.000;0.000;2023-09-07T03:35:28;20.40;90.30
70762;DHT22;58360;0.000;0.000;2023-09-07T03:37:54;20.40;90.30
70762;DHT22;58360;0.000;0.000;2023-09-07T03:40:20;20.40;90.30
70762;DHT22;58360;0.000;0.000;2023-09-07T03:42:45;20.30;90.40
70762;DHT22;58360;0.000;0.000;2023-09-07T03:45:11;20.20;90.60
70762;DHT22;58360;0.000;0.000;2023-09-07T03:47:37;20.10;90.90
70762;DHT22;58360;0.000;0.000;2023-09-07T03:50:02;20.10;90.90
70762;DHT22;58360;0.000;0.000;2023-09-07T03:52:28;20.00;91.10
70762;DHT22;58360;0.000;0.000;2023-09-07T03:54:54;20.00;91.30
70762;DHT22;58360;0.000;0.000;2023-09-07T03:57:20;20.00;91.50
70762;DHT22;58360;0.000;0.000;2023-09-07T03:59:47;20.00;91.60
70762;DHT22;58360;0.000;0.000;2023-09-07T04:02:13;20.00;91.70
70762;DHT22;58360;0.000;0.000;2023-09-07T04:04:39;19.90;91.80
70762;DHT22;58360;0.000;0.000;2023-09-07T04:07:05;19.90;92.10
70762;DHT22;58360;0.000;0.000;2023-09-07T04:09:31;19.90;92.10
70762;DHT22;58360;0.000;0.000;2023-09-07T04:11:56;19.90;92.20
70762;DHT22;58360;0.000;0.000;2023-09-07T04:14:22;19.80;92.40
70762;DHT22;58360;0.000;0.000;2023-09-07T04:16:47;19.80;92.60
70762;DHT22;58360;0.000;0.000;2023-09-07T04:19:13;19.80;93.00
70762;DHT22;58360;0.000;0.000;2023-09-07T04:21:38;19.80;93.20
70762;DHT22;58360;0.000;0.000;2023-09-07T04:24:04;19.80;93.40
70762;DHT22;58360;0.000;0.000;2023-09-07T04:26:29;19.70;93.40
70762;DHT22;58360;0.000;0.000;2023-09-07T04:28:55;19.50;93.90
70762;DHT22;58360;0.000;0.000;2023-09-07T04:31:21;19.40;94.00
70762;DHT22;58360;0.000;0.000;2023-09-07T04:33:47;19.30;94.20
70762;DHT22;58360;0.000;0.000;2023-09-07T04:36:13;19.30;94.40
70762;DHT22;58360;0.000;0.000;2023-09-07T04:38:39;19.20;94.60
70762;DHT22;58360;0.000;0.000;2023-09-07T04:41:08;19.10;94.90
70762;DHT22;58360;0.000;0.000;2023-09-07T04:43:34;19.10;94.70
70762;DHT22;58360;0.000;0.000;2023-09-07T04:45:59;19.00;95.00
70762;DHT22;58360;0.000;0.000;2023-09-07T04:48:25;19.10;94.90
70762;DHT22;58360;0.000;0.000;2023-09-07T04:51:00;19.10;95.10
70762;DHT22;58360;0.000;0.000;2023-09-07T04:53:27;19.10;95.00
70762;DHT22;58360;0.000;0.000;2023-09-07T04:55:53;19.00;95.10
70762;DHT22;58360;0.000;0.000;2023-09-07T04:58:18;19.00;95.20
70762;DHT22;58360;0.000;0.000;2023-09-07T05:00:44;18.90;95.30
70762;DHT22;58360;0.000;0.000;2023-09-07T05:03:09;19.10;95.20
70762;DHT22;58360;0.000;0.000;2023-09-07T05:05:35;19.00;95.40
70762;DHT22;58360;0.000;0.000;2023-09-07T05:08:00;19.10;95.30
70762;DHT22;58360;0.000;0.000;2023-09-07T05:10:26;19.10;95.30
70762;DHT22;58360;0.000;0.000;2023-09-07T05:12:52;19.10;94.90
70762;DHT22;58360;0.000;0.000;2023-09-07T05:15:18;19.00;95.20
70762;DHT22;58360;0.000;0.000;2023-09-07T05:17:43;19.10;95.10
70762;DHT22;58360;0.000;0.000;2023-09-07T05:20:10;19.00;95.20
70762;DHT22;58360;0.000;0.000;2023-09-07T05:22:35;19.00;95.20
70762;DHT22;58360;0.000;0.000;2023-09-07T05:25:05;19.00;95.30
70762;DHT22;58360;0.000;0.000;2023-09-07T05:27:30;19.10;95.50
70762;DHT22;58360;0.000;0.000;2023-09-07T05:29:56;19.10;95.60
70762;DHT22;58360;0.000;0.000;2023-09-07T05:32:21;19.20;95.50
70762;DHT22;58360;0.000;0.000;2023-09-07T05:34:47;19.20;95.30
70762;DHT22;58360;0.000;0.000;2023-09-07T05:37:12;19.20;95.40
70762;DHT22;58360;0.000;0.000;2023-09-07T05:39:38;19.10;95.70
70762;DHT22;58360;0.000;0.000;2023-09-07T05:42:03;19.30;95.70
70762;DHT22;58360;0.000;0.000;2023-09-07T05:44:29;19.40;95.40
70762;DHT22;58360;0.000;0.000;2023-09-07T05:46:54;19.70;94.90
70762;DHT22;58360;0.000;0.000;2023-09-07T05:49:20;20.00;94.10
70762;DHT22;58360;0.000;0.000;2023-09-07T05:51:45;20.30;93.40
70762;DHT22;58360;0.000;0.000;2023-09-07T05:54:12;20.50;92.90
70762;DHT22;58360;0.000;0.000;2023-09-07T05:56:38;20.80;92.60
70762;DHT22;58360;0.000;0.000;2023-09-07T05:59:04;21.00;92.20
70762;DHT22;58360;0.000;0.000;2023-09-07T06:01:30;21.40;91.70
70762;DHT22;58360;0.000;0.000;2023-09-07T06:03:55;21.70;91.20
70762;DHT22;58360;0.000;0.000;2023-09-07T06:06:21;22.00;90.50
70762;DHT22;58360;0.000;0.000;2023-09-07T06:08:46;22.40;90.10
70762;DHT22;58360;0.000;0.000;2023-09-07T06:11:12;22.70;89.60
70762;DHT22;58360;0.000;0.000;2023-09-07T06:13:37;23.00;88.40
70762;DHT22;58360;0.000;0.000;2023-09-07T06:16:03;23.20;86.70
70762;DHT22;58360;0.000;0.000;2023-09-07T06:18:28;23.40;86.40
70762;DHT22;58360;0.000;0.000;2023-09-07T06:20:54;23.70;85.40
70762;DHT22;58360;0.000;0.000;2023-09-07T06:23:19;24.00;84.90
70762;DHT22;58360;0.000;0.000;2023-09-07T06:25:45;24.40;83.00
70762;DHT22;58360;0.000;0.000;2023-09-07T06:28:10;24.70;82.90
70762;DHT22;58360;0.000;0.000;2023-09-07T06:30:38;25.00;81.40
70762;DHT22;58360;0.000;0.000;2023-09-07T06:33:04;25.30;80.50
70762;DHT22;58360;0.000;0.000;2023-09-07T06:35:29;25.60;79.00
70762;DHT22;58360;0.000;0.000;2023-09-07T06:37:55;26.20;78.50
70762;DHT22;58360;0.000;0.000;2023-09-07T06:40:21;26.50;78.30
70762;DHT22;58360;0.000;0.000;2023-09-07T06:42:47;26.70;74.60
70762;DHT22;58360;0.000;0.000;2023-09-07T06:45:12;26.90;74.90
70762;DHT22;58360;0.000;0.000;2023-09-07T06:47:38;27.40;72.40
70762;DHT22;58360;0.000;0.000;2023-09-07T06:50:04;26.90;76.60
70762;DHT22;58360;0.000;0.000;2023-09-07T06:52:30;27.00;74.20
70762;DHT22;58360;0.000;0.000;2023-09-07T06:54:56;26.90;75.20
70762;DHT22;58360;0.000;0.000;2023-09-07T06:57:21;26.50;77.60
70762;DHT22;58360;0.000;0.000;2023-09-07T06:59:47;26.10;78.10
70762;DHT22;58360;0.000;0.000;2023-09-07T07:02:13;26.90;75.90
70762;DHT22;58360;0.000;0.000;2023-09-07T07:04:39;27.70;73.10
70762;DHT22;58360;0.000;0.000;2023-09-07T07:07:05;28.00;73.20
70762;DHT22;58360;0.000;0.000;2023-09-07T07:09:31;28.60;69.90
70762;DHT22;58360;0.000;0.000;2023-09-07T07:12:00;28.70;68.60
70762;DHT22;58360;0.000;0.000;2023-09-07T07:14:28;29.10;68.10
70762;DHT22;58360;0.000;0.000;2023-09-07T07:16:54;28.80;68.60
70762;DHT22;58360;0.000;0.000;2023-09-07T07:19:19;29.20;68.20
70762;DHT22;58360;0.000;0.000;2023-09-07T07:21:45;29.30;66.50
70762;DHT22;58360;0.000;0.000;2023-09-07T07:24:11;29.40;66.70
70762;DHT22;58360;0.000;0.000;2023-09-07T07:26:36;29.50;67.00
70762;DHT22;58360;0.000;0.000;2023-09-07T07:29:02;29.60;67.60
70762;DHT22;58360;0.000;0.000;2023-09-07T07:31:28;29.70;69.30
70762;DHT22;58360;0.000;0.000;2023-09-07T07:33:54;30.00;67.70
70762;DHT22;58360;0.000;0.000;2023-09-07T07:36:20;29.90;71.00
70762;DHT22;58360;0.000;0.000;2023-09-07T07:38:46;30.30;67.30
70762;DHT22;58360;0.000;0.000;2023-09-07T07:41:12;30.40;66.80
70762;DHT22;58360;0.000;0.000;2023-09-07T07:43:37;30.30;68.90
70762;DHT22;58360;0.000;0.000;2023-09-07T07:46:03;31.60;66.20
70762;DHT22;58360;0.000;0.000;2023-09-07T07:48:29;32.00;61.60
70762;DHT22;58360;0.000;0.000;2023-09-07T07:50:55;32.10;61.70
70762;DHT22;58360;0.000;0.000;2023-09-07T07:53:20;32.20;63.50
70762;DHT22;58360;0.000;0.000;2023-09-07T07:55:46;31.90;61.70
70762;DHT22;58360;0.000;0.000;2023-09-07T07:58:13;31.40;65.60
70762;DHT22;58360;0.000;0.000;2023-09-07T08:00:39;32.20;63.80
70762;DHT22;58360;0.000;0.000;2023-09-07T08:03:12;32.40;65.70
70762;DHT22;58360;0.000;0.000;2023-09-07T08:05:38;33.20;62.90
70762;DHT22;58360;0.000;0.000;2023-09-07T08:08:05;33.30;60.30
70762;DHT22;58360;0.000;0.000;2023-09-07T08:10:33;34.40;60.20
70762;DHT22;58360;0.000;0.000;2023-09-07T08:12:59;34.10;58.80
70762;DHT22;58360;0.000;0.000;2023-09-07T08:15:24;34.70;57.70
70762;DHT22;58360;0.000;0.000;2023-09-07T08:17:50;35.00;57.60
70762;DHT22;58360;0.000;0.000;2023-09-07T08:20:16;34.80;59.90
70762;DHT22;58360;0.000;0.000;2023-09-07T08:22:42;34.70;57.80
70762;DHT22;58360;0.000;0.000;2023-09-07T08:25:10;35.30;58.80
70762;DHT22;58360;0.000;0.000;2023-09-07T08:27:36;35.90;56.20
70762;DHT22;58360;0.000;0.000;2023-09-07T08:30:02;36.10;56.80
70762;DHT22;58360;0.000;0.000;2023-09-07T08:32:28;35.80;59.70
70762;DHT22;58360;0.000;0.000;2023-09-07T08:34:55;36.70;58.20
70762;DHT22;58360;0.000;0.000;2023-09-07T08:37:26;37.40;53.40
70762;DHT22;58360;0.000;0.000;2023-09-07T08:39:53;38.00;50.30
70762;DHT22;58360;0.000;0.000;2023-09-07T08:42:19;37.00;53.70
70762;DHT22;58360;0.000;0.000;2023-09-07T08:44:44;37.60;54.10
70762;DHT22;58360;0.000;0.000;2023-09-07T08:47:11;37.60;53.90
70762;DHT22;58360;0.000;0.000;2023-09-07T08:49:39;37.70;51.20
70762;DHT22;58360;0.000;0.000;2023-09-07T08:52:06;37.60;52.40
70762;DHT22;58360;0.000;0.000;2023-09-07T08:54:32;37.00;55.90
70762;DHT22;58360;0.000;0.000;2023-09-07T08:56:58;37.30;53.00
70762;DHT22;58360;0.000;0.000;2023-09-07T08:59:24;37.90;52.40
70762;DHT22;58360;0.000;0.000;2023-09-07T09:01:49;38.70;48.00
70762;DHT22;58360;0.000;0.000;2023-09-07T09:04:15;39.10;48.70
70762;DHT22;58360;0.000;0.000;2023-09-07T09:06:41;38.90;47.50
70762;DHT22;58360;0.000;0.000;2023-09-07T09:09:06;39.00;52.50
70762;DHT22;58360;0.000;0.000;2023-09-07T09:11:32;38.70;53.30
70762;DHT22;58360;0.000;0.000;2023-09-07T09:13:57;39.90;50.50
70762;DHT22;58360;0.000;0.000;2023-09-07T09:16:23;40.40;49.80
70762;DHT22;58360;0.000;0.000;2023-09-07T09:18:49;40.30;51.70
70762;DHT22;58360;0.000;0.000;2023-09-07T09:21:17;40.10;50.40
70762;DHT22;58360;0.000;0.000;2023-09-07T09:23:43;40.50;49.00
70762;DHT22;58360;0.000;0.000;2023-09-07T09:26:08;40.40;50.00
70762;DHT22;58360;0.000;0.000;2023-09-07T09:28:34;41.30;47.60
70762;DHT22;58360;0.000;0.000;2023-09-07T09:31:00;41.40;50.80
70762;DHT22;58360;0.000;0.000;2023-09-07T09:33:26;42.00;46.50
70762;DHT22;58360;0.000;0.000;2023-09-07T09:35:53;41.50;48.40
70762;DHT22;58360;0.000;0.000;2023-09-07T09:38:19;41.80;44.80
70762;DHT22;58360;0.000;0.000;2023-09-07T09:40:45;42.10;45.90
70762;DHT22;58360;0.000;0.000;2023-09-07T09:43:11;42.60;44.80
70762;DHT22;58360;0.000;0.000;2023-09-07T09:45:37;42.50;45.80
70762;DHT22;58360;0.000;0.000;2023-09-07T09:48:03;42.40;44.60
70762;DHT22;58360;0.000;0.000;2023-09-07T09:50:30;41.60;45.20
70762;DHT22;58360;0.000;0.000;2023-09-07T09:52:55;41.30;47.00
70762;DHT22;58360;0.000;0.000;2023-09-07T09:55:21;41.00;46.10
70762;DHT22;58360;0.000;0.000;2023-09-07T09:57:47;41.30;48.00
70762;DHT22;58360;0.000;0.000;2023-09-07T10:00:13;41.10;43.50
70762;DHT22;58360;0.000;0.000;2023-09-07T10:02:48;41.80;44.50
70762;DHT22;58360;0.000;0.000;2023-09-07T10:05:15;41.90;44.90
70762;DHT22;58360;0.000;0.000;2023-09-07T10:07:44;42.60;43.70
70762;DHT22;58360;0.000;0.000;2023-09-07T10:10:13;42.70;43.00
70762;DHT22;58360;0.000;0.000;2023-09-07T10:12:41;42.10;45.50
70762;DHT22;58360;0.000;0.000;2023-09-07T10:15:06;42.40;42.80
70762;DHT22;58360;0.000;0.000;2023-09-07T10:17:32;42.80;44.30
70762;DHT22;58360;0.000;0.000;2023-09-07T10:20:01;43.10;41.20
70762;DHT22;58360;0.000;0.000;2023-09-07T10:22:30;43.10;41.80
70762;DHT22;58360;0.000;0.000;2023-09-07T10:24:57;42.90;42.20
70762;DHT22;58360;0.000;0.000;2023-09-07T10:27:22;42.90;42.60
70762;DHT22;58360;0.000;0.000;2023-09-07T10:29:51;43.30;39.60
70762;DHT22;58360;0.000;0.000;2023-09-07T10:32:19;42.90;40.50
70762;DHT22;58360;0.000;0.000;2023-09-07T10:34:45;43.20;40.60
70762;DHT22;58360;0.000;0.000;2023-09-07T10:37:11;42.90;41.10
70762;DHT22;58360;0.000;0.000;2023-09-07T10:39:39;43.00;39.80
70762;DHT22;58360;0.000;0.000;2023-09-07T10:42:04;42.50;43.30
70762;DHT22;58360;0.000;0.000;2023-09-07T10:44:30;42.10;42.10
70762;DHT22;58360;0.000;0.000;2023-09-07T10:46:59;42.30;41.80
70762;DHT22;58360;0.000;0.000;2023-09-07T10:49:25;41.80;42.40
70762;DHT22;58360;0.000;0.000;2023-09-07T10:51:50;41.90;42.80
70762;DHT22;58360;0.000;0.000;2023-09-07T10:54:16;42.30;41.90
70762;DHT22;58360;0.000;0.000;2023-09-07T10:56:45;42.40;43.60
70762;DHT22;58360;0.000;0.000;2023-09-07T10:59:12;41.90;43.00
70762;DHT22;58360;0.000;0.000;2023-09-07T11:01:38;42.10;41.80
70762;DHT22;58360;0.000;0.000;2023-09-07T11:04:03;42.30;41.50
70762;DHT22;58360;0.000;0.000;2023-09-07T11:06:31;42.30;45.00
70762;DHT22;58360;0.000;0.000;2023-09-07T11:08:59;42.40;40.40
70762;DHT22;58360;0.000;0.000;2023-09-07T11:11:24;42.10;43.40
70762;DHT22;58360;0.000;0.000;2023-09-07T11:13:51;42.30;39.60
70762;DHT22;58360;0.000;0.000;2023-09-07T11:16:16;43.20;39.50
70762;DHT22;58360;0.000;0.000;2023-09-07T11:18:42;43.10;41.60
70762;DHT22;58360;0.000;0.000;2023-09-07T11:21:08;43.00;44.60
70762;DHT22;58360;0.000;0.000;2023-09-07T11:23:35;43.30;43.90
70762;DHT22;58360;0.000;0.000;2023-09-07T11:26:04;43.10;43.10
70762;DHT22;58360;0.000;0.000;2023-09-07T11:28:30;42.60;43.70
70762;DHT22;58360;0.000;0.000;2023-09-07T11:30:55;43.00;45.30
70762;DHT22;58360;0.000;0.000;2023-09-07T11:33:22;43.30;41.30
70762;DHT22;58360;0.000;0.000;2023-09-07T11:35:47;43.10;40.90
70762;DHT22;58360;0.000;0.000;2023-09-07T11:38:14;42.90;44.30
70762;DHT22;58360;0.000;0.000;2023-09-07T11:40:40;42.50;42.30
70762;DHT22;58360;0.000;0.000;2023-09-07T11:43:13;42.10;42.50
70762;DHT22;58360;0.000;0.000;2023-09-07T11:45:42;42.30;43.00
70762;DHT22;58360;0.000;0.000;2023-09-07T11:48:08;42.00;43.30
70762;DHT22;58360;0.000;0.000;2023-09-07T11:50:34;42.10;43.00
70762;DHT22;58360;0.000;0.000;2023-09-07T11:53:00;42.00;41.70
70762;DHT22;58360;0.000;0.000;2023-09-07T11:55:26;42.20;39.60
70762;DHT22;58360;0.000;0.000;2023-09-07T11:57:52;41.80;41.80
70762;DHT22;58360;0.000;0.000;2023-09-07T12:00:17;41.60;40.90
70762;DHT22;58360;0.000;0.000;2023-09-07T12:02:43;41.30;48.60
70762;DHT22;58360;0.000;0.000;2023-09-07T12:05:09;41.30;44.00
70762;DHT22;58360;0.000;0.000;2023-09-07T12:07:37;41.20;42.80
70762;DHT22;58360;0.000;0.000;2023-09-07T12:10:03;41.70;43.10
70762;DHT22;58360;0.000;0.000;2023-09-07T12:12:29;41.60;43.40
70762;DHT22;58360;0.000;0.000;2023-09-07T12:14:55;41.90;42.70
70762;DHT22;58360;0.000;0.000;2023-09-07T12:17:24;41.70;40.90
70762;DHT22;58360;0.000;0.000;2023-09-07T12:19:50;42.00;42.80
70762;DHT22;58360;0.000;0.000;2023-09-07T12:22:17;41.60;40.90
70762;DHT22;58360;0.000;0.000;2023-09-07T12:24:43;41.40;39.80
70762;DHT22;58360;0.000;0.000;2023-09-07T12:27:09;41.60;39.00
70762;DHT22;58360;0.000;0.000;2023-09-07T12:29:34;41.20;41.30
70762;DHT22;58360;0.000;0.000;2023-09-07T12:32:00;40.70;40.50
70762;DHT22;58360;0.000;0.000;2023-09-07T12:34:25;40.30;41.70
70762;DHT22;58360;0.000;0.000;2023-09-07T12:36:51;40.00;40.70
70762;DHT22;58360;0.000;0.000;2023-09-07T12:39:16;40.50;40.80
70762;DHT22;58360;0.000;0.000;2023-09-07T12:41:42;40.30;40.00
70762;DHT22;58360;0.000;0.000;2023-09-07T12:44:08;40.10;40.50
70762;DHT22;58360;0.000;0.000;2023-09-07T12:46:34;39.80;40.80
70762;DHT22;58360;0.000;0.000;2023-09-07T12:49:00;39.60;43.00
70762;DHT22;58360;0.000;0.000;2023-09-07T12:51:26;39.40;43.50
70762;DHT22;58360;0.000;0.000;2023-09-07T12:53:51;39.90;43.50
70762;DHT22;58360;0.000;0.000;2023-09-07T12:56:17;39.70;43.20
70762;DHT22;58360;0.000;0.000;2023-09-07T12:58:44;39.80;42.20
70762;DHT22;58360;0.000;0.000;2023-09-07T13:01:09;40.20;41.70
70762;DHT22;58360;0.000;0.000;2023-09-07T13:03:39;40.00;41.90
70762;DHT22;58360;0.000;0.000;2023-09-07T13:06:04;40.00;43.70
70762;DHT22;58360;0.000;0.000;2023-09-07T13:08:30;40.00;41.10
70762;DHT22;58360;0.000;0.000;2023-09-07T13:10:56;40.10;41.10
70762;DHT22;58360;0.000;0.000;2023-09-07T13:13:23;40.40;45.20
70762;DHT22;58360;0.000;0.000;2023-09-07T13:15:51;40.30;43.50
70762;DHT22;58360;0.000;0.000;2023-09-07T13:18:16;40.10;44.10
70762;DHT22;58360;0.000;0.000;2023-09-07T13:20:42;40.40;42.50
70762;DHT22;58360;0.000;0.000;2023-09-07T13:23:07;40.60;45.00
70762;DHT22;58360;0.000;0.000;2023-09-07T13:25:33;40.60;42.10
70762;DHT22;58360;0.000;0.000;2023-09-07T13:27:58;40.30;41.50
70762;DHT22;58360;0.000;0.000;2023-09-07T13:30:24;40.10;41.00
70762;DHT22;58360;0.000;0.000;2023-09-07T13:32:50;40.30;41.30
70762;DHT22;58360;0.000;0.000;2023-09-07T13:35:15;40.10;43.20
70762;DHT22;58360;0.000;0.000;2023-09-07T13:37:41;39.90;42.70
70762;DHT22;58360;0.000;0.000;2023-09-07T13:40:07;40.00;42.10
70762;DHT22;58360;0.000;0.000;2023-09-07T13:42:33;40.00;45.20
70762;DHT22;58360;0.000;0.000;2023-09-07T13:44:58;40.30;43.30
70762;DHT22;58360;0.000;0.000;2023-09-07T13:47:24;40.30;39.10
70762;DHT22;58360;0.000;0.000;2023-09-07T13:49:49;40.00;40.00
70762;DHT22;58360;0.000;0.000;2023-09-07T13:52:15;39.40;42.90
70762;DHT22;58360;0.000;0.000;2023-09-07T13:54:40;39.00;43.10
70762;DHT22;58360;0.000;0.000;2023-09-07T13:57:06;39.00;42.30
70762;DHT22;58360;0.000;0.000;2023-09-07T13:59:32;39.10;41.60
70762;DHT22;58360;0.000;0.000;2023-09-07T14:02:00;38.90;44.50
70762;DHT22;58360;0.000;0.000;2023-09-07T14:04:25;38.90;46.30
70762;DHT22;58360;0.000;0.000;2023-09-07T14:06:51;39.00;42.70
70762;DHT22;58360;0.000;0.000;2023-09-07T14:09:16;39.00;49.20
70762;DHT22;58360;0.000;0.000;2023-09-07T14:11:42;39.00;44.40
70762;DHT22;58360;0.000;0.000;2023-09-07T14:14:08;39.10;46.80
70762;DHT22;58360;0.000;0.000;2023-09-07T14:16:34;39.30;44.00
70762;DHT22;58360;0.000;0.000;2023-09-07T14:18:59;39.40;43.70
70762;DHT22;58360;0.000;0.000;2023-09-07T14:21:25;39.40;43.40
70762;DHT22;58360;0.000;0.000;2023-09-07T14:23:51;39.20;46.80
70762;DHT22;58360;0.000;0.000;2023-09-07T14:26:16;39.20;47.60
70762;DHT22;58360;0.000;0.000;2023-09-07T14:28:42;39.10;44.10
70762;DHT22;58360;0.000;0.000;2023-09-07T14:31:07;38.90;43.90
70762;DHT22;58360;0.000;0.000;2023-09-07T14:33:34;38.60;42.70
70762;DHT22;58360;0.000;0.000;2023-09-07T14:36:02;38.60;43.10
70762;DHT22;58360;0.000;0.000;2023-09-07T14:38:27;38.50;48.80
70762;DHT22;58360;0.000;0.000;2023-09-07T14:40:54;38.40;43.50
70762;DHT22;58360;0.000;0.000;2023-09-07T14:43:21;38.20;44.30
70762;DHT22;58360;0.000;0.000;2023-09-07T14:45:47;38.30;47.60
70762;DHT22;58360;0.000;0.000;2023-09-07T14:48:13;38.10;45.80
70762;DHT22;58360;0.000;0.000;2023-09-07T14:50:38;38.10;46.00
70762;DHT22;58360;0.000;0.000;2023-09-07T14:53:04;38.10;46.10
70762;DHT22;58360;0.000;0.000;2023-09-07T14:55:29;38.00;48.90
70762;DHT22;58360;0.000;0.000;2023-09-07T14:57:55;37.90;47.10
70762;DHT22;58360;0.000;0.000;2023-09-07T15:00:20;37.70;49.10
70762;DHT22;58360;0.000;0.000;2023-09-07T15:02:48;37.60;47.00
70762;DHT22;58360;0.000;0.000;2023-09-07T15:05:13;37.60;46.00
70762;DHT22;58360;0.000;0.000;2023-09-07T15:07:39;37.50;48.30
70762;DHT22;58360;0.000;0.000;2023-09-07T15:10:04;37.50;48.60
70762;DHT22;58360;0.000;0.000;2023-09-07T15:12:30;37.60;47.60
70762;DHT22;58360;0.000;0.000;2023-09-07T15:14:55;37.40;47.70
70762;DHT22;58360;0.000;0.000;2023-09-07T15:17:21;37.40;52.20
70762;DHT22;58360;0.000;0.000;2023-09-07T15:19:47;37.60;50.30
70762;DHT22;58360;0.000;0.000;2023-09-07T15:22:12;37.60;51.50
70762;DHT22;58360;0.000;0.000;2023-09-07T15:24:38;37.80;50.10
70762;DHT22;58360;0.000;0.000;2023-09-07T15:27:10;37.70;50.60
70762;DHT22;58360;0.000;0.000;2023-09-07T15:29:36;37.80;47.90
70762;DHT22;58360;0.000;0.000;2023-09-07T15:32:03;37.50;47.90
70762;DHT22;58360;0.000;0.000;2023-09-07T15:34:28;37.20;49.20
70762;DHT22;58360;0.000;0.000;2023-09-07T15:36:54;37.10;49.70